Time;durP1;ratioP1;P1;durP2;ratioP2;P2;SDS_P1;SDS_P2;PMS_P1;PMS_P2;Temp;Humidity;BMP_temperature;BMP_pressure;BME280_temperature;BME280_humidity;BME280_pressure;Samples;Min_cycle;Max_cycle;Signal;HPM_P1;HPM_P2
2021/08/21 00:00:05;;;;;;;27.33;22.15;;;;;;;;;;4973844;28;20039;-70
2021/08/21 00:02:56;;;;;;;28.67;20.88;;;;;;;;;;4954422;28;20122;-70
2021/08/21 00:05:41;;;;;;;29.15;20.50;;;;;;;;;;4971056;28;20069;-70
2021/08/21 00:08:27;;;;;;;25.50;20.08;;;;;;;;;;4973645;28;20053;-70
2021/08/21 00:11:12;;;;;;;26.55;19.25;;;;;;;;;;4966492;28;20409;-70
2021/08/21 00:13:57;;;;;;;26.08;19.52;;;;;;;;;;4951450;29;20106;-70
2021/08/21 00:16:43;;;;;;;27.20;20.58;;;;;;;;;;4954281;28;20050;-69
2021/08/21 00:19:28;;;;;;;25.42;19.13;;;;;;;;;;4954446;28;20479;-69
2021/08/21 00:22:14;;;;;;;29.25;21.95;;;;;;;;;;4953555;28;20043;-69
2021/08/21 00:24:59;;;;;;;28.83;23.45;;;;;;;;;;4953895;28;20046;-69
2021/08/21 00:27:44;;;;;;;31.48;25.88;;;;;;;;;;4953044;28;20043;-69
2021/08/21 00:30:29;;;;;;;33.60;25.80;;;;;;;;;;4953349;29;20043;-69
2021/08/21 00:33:14;;;;;;;29.85;23.08;;;;;;;;;;4951636;28;20043;-69
2021/08/21 00:36:00;;;;;;;26.92;22.25;;;;;;;;;;4954007;28;20406;-69
2021/08/21 00:38:45;;;;;;;26.70;21.05;;;;;;;;;;4955425;28;20054;-69
2021/08/21 00:41:30;;;;;;;28.80;20.75;;;;;;;;;;4956443;29;20047;-69
2021/08/21 00:44:15;;;;;;;24.60;20.45;;;;;;;;;;4955868;28;20490;-69
2021/08/21 00:47:02;;;;;;;31.33;24.42;;;;;;;;;;4955878;28;20054;-69
2021/08/21 00:49:48;;;;;;;32.42;24.95;;;;;;;;;;4954835;29;20098;-69
2021/08/21 00:52:34;;;;;;;33.80;25.30;;;;;;;;;;4952888;28;20114;-70
2021/08/21 00:55:21;;;;;;;33.20;25.52;;;;;;;;;;4952532;29;20516;-70
2021/08/21 00:58:06;;;;;;;39.13;28.48;;;;;;;;;;4952938;28;20043;-69
2021/08/21 01:00:52;;;;;;;39.38;27.08;;;;;;;;;;4951945;29;20075;-70
2021/08/21 01:03:40;;;;;;;33.10;27.75;;;;;;;;;;4952489;29;20135;-70
2021/08/21 01:06:26;;;;;;;37.40;28.02;;;;;;;;;;4953802;28;20405;-69
2021/08/21 01:09:11;;;;;;;32.47;26.02;;;;;;;;;;4952578;28;20054;-69
2021/08/21 01:11:57;;;;;;;35.25;26.60;;;;;;;;;;4952031;28;20047;-69
2021/08/21 01:14:43;;;;;;;33.33;24.90;;;;;;;;;;4935350;29;20399;-69
2021/08/21 01:17:28;;;;;;;35.78;25.33;;;;;;;;;;4940370;29;20043;-69
2021/08/21 01:20:14;;;;;;;32.35;25.63;;;;;;;;;;4939258;29;20050;-69
2021/08/21 01:23:00;;;;;;;32.70;24.45;;;;;;;;;;4936382;29;20051;-69
2021/08/21 01:25:50;;;;;;;35.25;26.25;;;;;;;;;;4939790;29;20035;-69
2021/08/21 01:28:37;;;;;;;34.70;25.65;;;;;;;;;;4952543;28;20335;-69
2021/08/21 01:31:37;;;;;;;37.28;25.90;;;;;;;;;;4952705;28;20079;-69
2021/08/21 01:34:22;;;;;;;33.17;25.77;;;;;;;;;;4952375;29;20509;-69
2021/08/21 01:37:08;;;;;;;34.45;25.08;;;;;;;;;;4952477;29;20417;-69
2021/08/21 01:39:54;;;;;;;34.08;24.35;;;;;;;;;;4953334;28;20054;-70
2021/08/21 01:42:49;;;;;;;33.65;25.65;;;;;;;;;;4952308;28;20046;-70
2021/08/21 01:45:34;;;;;;;37.90;26.17;;;;;;;;;;4955510;29;20102;-70
2021/08/21 01:48:20;;;;;;;35.35;25.95;;;;;;;;;;4956133;28;20047;-70
2021/08/21 01:51:05;;;;;;;33.35;25.08;;;;;;;;;;4955848;29;20069;-70
2021/08/21 01:53:52;;;;;;;33.13;24.77;;;;;;;;;;4954458;29;20143;-70
2021/08/21 01:56:49;;;;;;;34.42;26.42;;;;;;;;;;4955740;29;20079;-71
2021/08/21 01:59:50;;;;;;;32.42;26.50;;;;;;;;;;4955560;28;20043;-70
2021/08/21 02:02:44;;;;;;;32.78;26.60;;;;;;;;;;4954751;29;20054;-70
2021/08/21 02:05:46;;;;;;;33.92;26.33;;;;;;;;;;4955453;29;20410;-70
2021/08/21 02:08:31;;;;;;;36.30;26.90;;;;;;;;;;4956214;28;20071;-70
2021/08/21 02:11:17;;;;;;;42.40;31.88;;;;;;;;;;4955515;29;20043;-69
2021/08/21 02:14:03;;;;;;;41.60;31.65;;;;;;;;;;4945156;29;20517;-70
2021/08/21 02:16:52;;;;;;;36.90;29.35;;;;;;;;;;4936171;29;20044;-69
2021/08/21 02:19:38;;;;;;;36.33;25.98;;;;;;;;;;4922980;29;20050;-69
2021/08/21 02:22:34;;;;;;;31.23;25.65;;;;;;;;;;4924395;29;20043;-70
2021/08/21 02:25:19;;;;;;;31.90;24.98;;;;;;;;;;4951879;29;20069;-69
2021/08/21 02:28:07;;;;;;;40.88;27.52;;;;;;;;;;4955091;28;20071;-69
2021/08/21 02:30:52;;;;;;;29.77;23.23;;;;;;;;;;4941879;29;20055;-69
2021/08/21 02:33:38;;;;;;;37.92;26.33;;;;;;;;;;4954997;28;20110;-69
2021/08/21 02:36:24;;;;;;;40.75;28.63;;;;;;;;;;4954978;29;20053;-69
2021/08/21 02:39:09;;;;;;;47.67;31.40;;;;;;;;;;4940779;29;20118;-69
2021/08/21 02:41:54;;;;;;;40.03;29.67;;;;;;;;;;4953687;29;20134;-69
2021/08/21 02:44:40;;;;;;;35.13;25.58;;;;;;;;;;4953080;29;20039;-70
2021/08/21 02:47:27;;;;;;;30.15;24.42;;;;;;;;;;4955823;28;20122;-70
2021/08/21 02:50:12;;;;;;;30.75;24.23;;;;;;;;;;4954781;29;20508;-70
2021/08/21 02:52:58;;;;;;;36.55;27.30;;;;;;;;;;4954741;29;20110;-70
2021/08/21 02:55:43;;;;;;;35.17;25.20;;;;;;;;;;4952946;28;20557;-70
2021/08/21 02:58:29;;;;;;;38.15;27.10;;;;;;;;;;4955785;28;20164;-70
2021/08/21 03:01:15;;;;;;;44.45;29.55;;;;;;;;;;4954588;29;20243;-70
2021/08/21 03:04:00;;;;;;;37.58;27.10;;;;;;;;;;4954216;29;20050;-70
2021/08/21 03:06:45;;;;;;;42.05;31.85;;;;;;;;;;4953703;28;20410;-70
2021/08/21 03:09:39;;;;;;;46.25;33.95;;;;;;;;;;4954491;29;20043;-70
2021/08/21 03:12:28;;;;;;;48.15;34.80;;;;;;;;;;4955337;28;20043;-69
2021/08/21 03:15:18;;;;;;;50.85;34.60;;;;;;;;;;4953060;29;20069;-69
2021/08/21 03:18:04;;;;;;;43.60;31.63;;;;;;;;;;4954078;28;20050;-69
2021/08/21 03:20:50;;;;;;;42.08;30.35;;;;;;;;;;4954235;29;20043;-69
2021/08/21 03:23:38;;;;;;;42.08;30.65;;;;;;;;;;4953745;29;20190;-69
2021/08/21 03:26:23;;;;;;;46.50;34.65;;;;;;;;;;4945064;29;20051;-69
2021/08/21 03:29:16;;;;;;;42.00;31.33;;;;;;;;;;4922495;29;20051;-69
2021/08/21 03:32:01;;;;;;;40.45;31.85;;;;;;;;;;4934784;29;20094;-69
2021/08/21 03:34:46;;;;;;;39.78;31.75;;;;;;;;;;4935516;29;20051;-70
2021/08/21 03:37:32;;;;;;;52.35;36.95;;;;;;;;;;4950162;29;20051;-71
2021/08/21 03:40:17;;;;;;;58.05;38.88;;;;;;;;;;4940593;29;20049;-70
2021/08/21 03:43:16;;;;;;;66.15;42.42;;;;;;;;;;4953851;29;20046;-70
2021/08/21 03:46:01;;;;;;;64.07;40.22;;;;;;;;;;4952961;29;20035;-70
2021/08/21 03:48:47;;;;;;;62.83;38.42;;;;;;;;;;4934479;29;20079;-70
2021/08/21 03:51:32;;;;;;;67.90;41.40;;;;;;;;;;4934467;29;20054;-70
2021/08/21 03:54:18;;;;;;;64.22;40.08;;;;;;;;;;4921029;29;20487;-69
2021/08/21 03:57:03;;;;;;;63.63;39.83;;;;;;;;;;4939549;29;20078;-69
2021/08/21 03:59:49;;;;;;;69.25;42.10;;;;;;;;;;4953436;28;20050;-69
2021/08/21 04:02:34;;;;;;;71.72;40.85;;;;;;;;;;4954476;28;20502;-69
2021/08/21 04:05:19;;;;;;;60.03;37.38;;;;;;;;;;4939596;29;20491;-69
2021/08/21 04:08:06;;;;;;;68.10;39.90;;;;;;;;;;4951459;28;20047;-69
2021/08/21 04:10:51;;;;;;;70.43;41.00;;;;;;;;;;4952100;29;20039;-70
2021/08/21 04:13:37;;;;;;;67.60;39.60;;;;;;;;;;4949691;29;20039;-70
2021/08/21 04:16:23;;;;;;;56.92;36.25;;;;;;;;;;4940991;28;20043;-70
2021/08/21 04:19:09;;;;;;;76.30;46.20;;;;;;;;;;4952600;29;20046;-70
2021/08/21 04:21:57;;;;;;;73.43;43.55;;;;;;;;;;4953065;29;20054;-70
2021/08/21 04:25:09;;;;;;;64.88;40.05;;;;;;;;;;4953979;28;20039;-70
2021/08/21 04:27:57;;;;;;;105.70;51.83;;;;;;;;;;4939375;28;20047;-70
2021/08/21 04:30:43;;;;;;;97.00;47.53;;;;;;;;;;4953151;29;20118;-70
2021/08/21 04:33:28;;;;;;;143.15;51.92;;;;;;;;;;4939525;29;20130;-70
2021/08/21 04:36:14;;;;;;;387.08;68.22;;;;;;;;;;4952184;29;20054;-70
2021/08/21 04:38:59;;;;;;;305.23;68.13;;;;;;;;;;4952994;28;20094;-70
2021/08/21 04:41:45;;;;;;;368.33;74.03;;;;;;;;;;4954091;28;20058;-69
2021/08/21 04:44:30;;;;;;;379.88;79.18;;;;;;;;;;4952640;29;20046;-69
2021/08/21 04:47:16;;;;;;;423.83;84.45;;;;;;;;;;4952023;29;20048;-69
2021/08/21 04:50:04;;;;;;;629.95;96.43;;;;;;;;;;4952905;29;20047;-69
2021/08/21 04:52:52;;;;;;;395.52;75.90;;;;;;;;;;4940070;29;20102;-69
2021/08/21 04:55:39;;;;;;;376.55;78.45;;;;;;;;;;4952735;29;20098;-69
2021/08/21 04:58:24;;;;;;;349.90;79.13;;;;;;;;;;4932827;29;20044;-69
2021/08/21 05:01:09;;;;;;;353.98;77.28;;;;;;;;;;4949252;28;20043;-69
2021/08/21 05:04:00;;;;;;;338.35;70.95;;;;;;;;;;4952246;29;20045;-69
2021/08/21 05:06:48;;;;;;;384.52;79.88;;;;;;;;;;4939237;29;20083;-69
2021/08/21 05:09:33;;;;;;;453.23;82.65;;;;;;;;;;4933985;29;20130;-70
2021/08/21 05:12:24;;;;;;;322.98;75.78;;;;;;;;;;4933595;29;20059;-70
2021/08/21 05:15:38;;;;;;;423.90;80.32;;;;;;;;;;4933731;29;20055;-70
2021/08/21 05:18:57;;;;;;;326.05;75.45;;;;;;;;;;4938650;29;20066;-70
2021/08/21 05:21:51;;;;;;;374.05;74.82;;;;;;;;;;4956364;29;20043;-70
2021/08/21 05:24:37;;;;;;;242.88;66.28;;;;;;;;;;4956059;28;20053;-70
2021/08/21 05:27:23;;;;;;;399.25;75.78;;;;;;;;;;4957339;28;20051;-70
2021/08/21 05:30:08;;;;;;;294.08;66.45;;;;;;;;;;4957312;28;20073;-70
2021/08/21 05:32:54;;;;;;;516.70;80.68;;;;;;;;;;4955571;29;20051;-70
2021/08/21 05:35:39;;;;;;;252.32;59.05;;;;;;;;;;4936853;29;20063;-70
2021/08/21 05:38:24;;;;;;;583.05;81.90;;;;;;;;;;4938353;29;20047;-69
2021/08/21 05:41:10;;;;;;;337.92;60.85;;;;;;;;;;4937896;29;20043;-70
2021/08/21 05:43:56;;;;;;;509.35;76.57;;;;;;;;;;4942631;29;20041;-70
2021/08/21 05:46:41;;;;;;;315.58;61.00;;;;;;;;;;4955910;29;20047;-69
2021/08/21 05:49:26;;;;;;;396.83;61.95;;;;;;;;;;4956800;28;20043;-69
2021/08/21 05:52:12;;;;;;;228.07;52.03;;;;;;;;;;4956841;28;20047;-70
2021/08/21 05:54:57;;;;;;;225.10;48.03;;;;;;;;;;4955794;28;20047;-69
2021/08/21 05:57:52;;;;;;;160.60;45.78;;;;;;;;;;4955803;29;20094;-69
2021/08/21 06:00:38;;;;;;;176.43;42.28;;;;;;;;;;4955790;28;20511;-69
2021/08/21 06:03:23;;;;;;;205.50;44.92;;;;;;;;;;4956622;28;20635;-69
2021/08/21 06:06:12;;;;;;;172.35;41.78;;;;;;;;;;4956474;28;20414;-69
2021/08/21 06:08:57;;;;;;;137.38;38.30;;;;;;;;;;4955353;28;20043;-69
2021/08/21 06:11:42;;;;;;;120.70;38.25;;;;;;;;;;4941434;29;20043;-69
2021/08/21 06:14:28;;;;;;;100.85;35.35;;;;;;;;;;4956184;28;20047;-70
2021/08/21 06:17:14;;;;;;;94.13;34.67;;;;;;;;;;4956537;28;20047;-70
2021/08/21 06:19:59;;;;;;;124.60;35.08;;;;;;;;;;4956427;28;20051;-70
2021/08/21 06:22:44;;;;;;;65.60;31.33;;;;;;;;;;4953707;28;20121;-70
2021/08/21 06:25:29;;;;;;;65.28;31.85;;;;;;;;;;4956054;28;20047;-70
2021/08/21 06:28:16;;;;;;;92.65;34.00;;;;;;;;;;4956144;28;20054;-70
2021/08/21 06:31:01;;;;;;;80.63;32.70;;;;;;;;;;4955071;28;20065;-70
2021/08/21 06:33:46;;;;;;;84.20;33.38;;;;;;;;;;4954938;29;20051;-70
2021/08/21 06:36:31;;;;;;;190.38;35.33;;;;;;;;;;4955993;28;20079;-70
2021/08/21 06:39:17;;;;;;;202.57;38.53;;;;;;;;;;4954994;28;20044;-70
2021/08/21 06:42:02;;;;;;;71.65;31.17;;;;;;;;;;4953202;28;20597;-70
2021/08/21 06:44:49;;;;;;;60.03;30.10;;;;;;;;;;4940582;29;20051;-70
2021/08/21 06:47:34;;;;;;;54.35;28.80;;;;;;;;;;4954583;28;20054;-69
2021/08/21 06:50:20;;;;;;;55.30;30.17;;;;;;;;;;4953993;28;20043;-70
2021/08/21 06:53:05;;;;;;;77.90;29.15;;;;;;;;;;4955840;28;20394;-70
2021/08/21 06:55:50;;;;;;;60.17;31.95;;;;;;;;;;4955579;28;20083;-70
2021/08/21 06:58:36;;;;;;;78.38;32.00;;;;;;;;;;4955595;28;20134;-70
2021/08/21 07:01:21;;;;;;;60.97;31.10;;;;;;;;;;4954860;28;20047;-70
2021/08/21 07:04:07;;;;;;;62.70;31.52;;;;;;;;;;4955237;28;20129;-70
2021/08/21 07:06:52;;;;;;;48.58;30.13;;;;;;;;;;4955235;28;20039;-70
2021/08/21 07:09:37;;;;;;;61.28;32.58;;;;;;;;;;4955303;28;20046;-63
2021/08/21 07:12:23;;;;;;;69.07;34.20;;;;;;;;;;4952974;29;20417;-64
2021/08/21 07:15:09;;;;;;;53.90;32.40;;;;;;;;;;4952672;29;20058;-63
2021/08/21 07:17:54;;;;;;;42.38;32.40;;;;;;;;;;4955433;28;20055;-63
2021/08/21 07:20:39;;;;;;;56.47;33.50;;;;;;;;;;4954364;28;20061;-63
2021/08/21 07:23:25;;;;;;;62.35;34.13;;;;;;;;;;4954403;28;20054;-64
2021/08/21 07:26:11;;;;;;;44.45;34.15;;;;;;;;;;4955188;28;20051;-65
2021/08/21 07:28:56;;;;;;;44.47;33.70;;;;;;;;;;4955073;28;20130;-63
2021/08/21 07:31:42;;;;;;;39.72;32.40;;;;;;;;;;4954253;28;20071;-63
2021/08/21 07:34:27;;;;;;;42.33;33.30;;;;;;;;;;4954742;28;20054;-64
2021/08/21 07:37:12;;;;;;;36.33;31.80;;;;;;;;;;4955040;28;20134;-63
2021/08/21 07:39:58;;;;;;;40.97;32.75;;;;;;;;;;4954800;28;20418;-64
2021/08/21 07:42:45;;;;;;;38.85;33.22;;;;;;;;;;4953074;28;20051;-63
2021/08/21 07:45:31;;;;;;;38.55;33.10;;;;;;;;;;4954529;28;20047;-63
2021/08/21 07:48:16;;;;;;;38.83;32.90;;;;;;;;;;4954675;28;20130;-63
2021/08/21 07:51:02;;;;;;;40.95;33.85;;;;;;;;;;4953908;28;20490;-64
2021/08/21 07:53:47;;;;;;;40.47;34.15;;;;;;;;;;4954513;28;20043;-64
2021/08/21 07:56:33;;;;;;;39.72;33.75;;;;;;;;;;4954609;28;20102;-64
2021/08/21 07:59:18;;;;;;;36.38;31.83;;;;;;;;;;4954629;28;20504;-64
2021/08/21 08:02:06;;;;;;;38.42;33.42;;;;;;;;;;4953638;28;20062;-64
2021/08/21 08:04:51;;;;;;;38.00;33.30;;;;;;;;;;4954108;28;20054;-64
2021/08/21 08:07:36;;;;;;;37.20;31.98;;;;;;;;;;4954484;28;20047;-63
2021/08/21 08:10:22;;;;;;;38.83;34.63;;;;;;;;;;4953749;28;20047;-63
2021/08/21 08:13:09;;;;;;;40.63;34.97;;;;;;;;;;4954208;28;20051;-64
2021/08/21 08:15:54;;;;;;;38.90;34.42;;;;;;;;;;4954272;28;20122;-64
2021/08/21 08:18:40;;;;;;;38.47;34.30;;;;;;;;;;4954268;28;20062;-63
2021/08/21 08:21:25;;;;;;;38.83;34.72;;;;;;;;;;4953063;28;20142;-64
2021/08/21 08:24:12;;;;;;;37.40;32.85;;;;;;;;;;4954117;28;20055;-63
2021/08/21 08:26:57;;;;;;;42.00;36.45;;;;;;;;;;4954109;28;20043;-64
2021/08/21 08:29:43;;;;;;;38.05;33.25;;;;;;;;;;4954002;28;20078;-64
2021/08/21 08:32:28;;;;;;;39.35;33.70;;;;;;;;;;4953578;28;20051;-64
2021/08/21 08:35:14;;;;;;;38.78;33.47;;;;;;;;;;4953927;28;20130;-64
2021/08/21 08:37:59;;;;;;;36.45;32.17;;;;;;;;;;4954219;28;20047;-63
2021/08/21 08:40:45;;;;;;;36.35;31.70;;;;;;;;;;4954023;28;20047;-63
2021/08/21 08:43:30;;;;;;;37.03;33.05;;;;;;;;;;4953010;28;20066;-65
2021/08/21 08:46:18;;;;;;;36.90;32.28;;;;;;;;;;4953773;28;20517;-64
2021/08/21 08:49:05;;;;;;;34.25;30.42;;;;;;;;;;4953931;28;20502;-65
2021/08/21 08:51:50;;;;;;;33.15;29.02;;;;;;;;;;4953842;28;20044;-65
2021/08/21 08:54:36;;;;;;;33.03;29.52;;;;;;;;;;4937597;29;20047;-65
2021/08/21 08:57:33;;;;;;;48.50;31.45;;;;;;;;;;4938648;29;20040;-65
2021/08/21 09:00:22;;;;;;;32.83;29.15;;;;;;;;;;4938700;29;20047;-65
2021/08/21 09:03:07;;;;;;;34.25;28.92;;;;;;;;;;4944559;29;20050;-64
2021/08/21 09:05:53;;;;;;;32.95;29.42;;;;;;;;;;4956854;29;20091;-65
2021/08/21 09:08:40;;;;;;;37.28;33.10;;;;;;;;;;4957608;28;20102;-65
2021/08/21 09:11:25;;;;;;;31.45;27.23;;;;;;;;;;4957610;28;20043;-65
2021/08/21 09:14:28;;;;;;;31.33;27.75;;;;;;;;;;4955933;28;20087;-65
2021/08/21 09:17:21;;;;;;;27.50;24.70;;;;;;;;;;4957587;28;20051;-65
2021/08/21 09:20:07;;;;;;;28.42;25.42;;;;;;;;;;4957725;28;20422;-65
2021/08/21 09:22:52;;;;;;;25.35;22.75;;;;;;;;;;4956758;28;20047;-65
2021/08/21 09:25:38;;;;;;;26.52;22.08;;;;;;;;;;4957118;28;20051;-65
2021/08/21 09:28:26;;;;;;;23.90;21.25;;;;;;;;;;4957433;28;20137;-65
2021/08/21 09:31:24;;;;;;;22.92;20.38;;;;;;;;;;4956415;28;20055;-65
2021/08/21 09:34:11;;;;;;;24.48;21.80;;;;;;;;;;4957004;28;20055;-65
2021/08/21 09:36:57;;;;;;;25.02;21.33;;;;;;;;;;4957349;28;20047;-65
2021/08/21 09:39:42;;;;;;;22.25;19.95;;;;;;;;;;4957019;28;20498;-65
2021/08/21 09:42:27;;;;;;;21.80;18.60;;;;;;;;;;4957119;28;20425;-65
2021/08/21 09:45:13;;;;;;;16.55;14.73;;;;;;;;;;4955805;29;20497;-65
2021/08/21 09:47:59;;;;;;;16.17;14.52;;;;;;;;;;4956892;28;20043;-65
2021/08/21 09:50:44;;;;;;;17.13;15.43;;;;;;;;;;4955945;28;20054;-65
2021/08/21 09:53:36;;;;;;;18.92;15.77;;;;;;;;;;4956794;28;20380;-65
2021/08/21 09:56:21;;;;;;;17.73;15.98;;;;;;;;;;4956745;28;20510;-65
2021/08/21 09:59:07;;;;;;;18.08;16.17;;;;;;;;;;4956647;28;20046;-65
2021/08/21 10:01:52;;;;;;;17.27;15.43;;;;;;;;;;4955904;28;20486;-66
2021/08/21 10:04:39;;;;;;;15.70;13.85;;;;;;;;;;4955351;28;20035;-66
2021/08/21 10:07:38;;;;;;;16.27;14.57;;;;;;;;;;4956774;28;20047;-65
2021/08/21 10:10:24;;;;;;;14.93;13.32;;;;;;;;;;4956658;28;20093;-64
2021/08/21 10:13:10;;;;;;;14.57;13.07;;;;;;;;;;4956147;28;20053;-65
2021/08/21 10:15:56;;;;;;;17.27;15.48;;;;;;;;;;4956471;28;20121;-66
2021/08/21 10:18:42;;;;;;;16.58;14.98;;;;;;;;;;4956501;28;20043;-66
2021/08/21 10:21:28;;;;;;;16.85;15.13;;;;;;;;;;4954859;29;20051;-66
2021/08/21 10:24:13;;;;;;;16.92;15.30;;;;;;;;;;4956066;29;20516;-65
2021/08/21 10:27:08;;;;;;;17.42;15.73;;;;;;;;;;4956231;28;20082;-65
2021/08/21 10:30:05;;;;;;;19.13;17.17;;;;;;;;;;4956345;28;20070;-65
2021/08/21 10:33:00;;;;;;;17.15;15.35;;;;;;;;;;4955448;28;20618;-65
2021/08/21 10:35:49;;;;;;;17.63;15.90;;;;;;;;;;4955994;28;20062;-65
2021/08/21 10:38:37;;;;;;;15.88;14.32;;;;;;;;;;4956040;28;20078;-65
2021/08/21 10:41:28;;;;;;;15.02;13.48;;;;;;;;;;4956068;28;20054;-65
2021/08/21 10:44:33;;;;;;;16.43;14.83;;;;;;;;;;4954263;28;20047;-65
2021/08/21 10:47:45;;;;;;;13.90;12.48;;;;;;;;;;4955921;29;20199;-65
2021/08/21 10:50:31;;;;;;;12.77;11.48;;;;;;;;;;4955053;28;20145;-65
2021/08/21 10:53:23;;;;;;;11.65;10.55;;;;;;;;;;4956072;28;20079;-65
2021/08/21 10:56:08;;;;;;;10.60;9.60;;;;;;;;;;4955750;28;20123;-65
2021/08/21 10:58:56;;;;;;;10.60;9.52;;;;;;;;;;4955891;28;20051;-65
2021/08/21 11:01:41;;;;;;;11.23;10.05;;;;;;;;;;4954850;28;20054;-65
2021/08/21 11:04:35;;;;;;;12.25;11.05;;;;;;;;;;4955462;28;20047;-65
2021/08/21 11:07:39;;;;;;;11.85;10.75;;;;;;;;;;4955377;28;20054;-65
2021/08/21 11:10:30;;;;;;;12.10;11.00;;;;;;;;;;5055134;23;20050;-67
2021/08/21 11:13:34;;;;;;;11.50;10.30;;;;;;;;;;5024546;28;20046;-67
2021/08/21 11:16:20;;;;;;;10.32;9.30;;;;;;;;;;5027284;28;20564;-67
2021/08/21 11:19:05;;;;;;;9.85;8.95;;;;;;;;;;5026239;28;20081;-67
2021/08/21 11:21:51;;;;;;;10.38;9.18;;;;;;;;;;5011698;28;20050;-67
2021/08/21 11:24:36;;;;;;;10.02;9.15;;;;;;;;;;5013245;28;20045;-67
2021/08/21 11:27:30;;;;;;;9.27;8.38;;;;;;;;;;5013152;28;20522;-67
2021/08/21 11:30:20;;;;;;;10.88;9.88;;;;;;;;;;5013245;28;20042;-67
2021/08/21 11:33:09;;;;;;;9.55;8.65;;;;;;;;;;5011260;28;20420;-67
2021/08/21 11:35:54;;;;;;;7.93;7.18;;;;;;;;;;5013091;28;20512;-66
2021/08/21 11:38:40;;;;;;;6.95;6.25;;;;;;;;;;5012254;28;20061;-67
2021/08/21 11:41:25;;;;;;;8.18;7.38;;;;;;;;;;5012978;28;20045;-67
2021/08/21 11:44:11;;;;;;;10.30;9.30;;;;;;;;;;5011723;28;20053;-66
2021/08/21 11:47:06;;;;;;;9.52;8.52;;;;;;;;;;5008719;28;20530;-67
2021/08/21 11:49:51;;;;;;;8.00;6.97;;;;;;;;;;5012073;28;20057;-67
2021/08/21 11:52:37;;;;;;;7.72;6.95;;;;;;;;;;5012390;28;20046;-67
2021/08/21 11:55:23;;;;;;;8.43;7.53;;;;;;;;;;5011750;28;20168;-67
2021/08/21 11:58:09;;;;;;;7.43;6.68;;;;;;;;;;5012837;28;20075;-67
2021/08/21 12:00:55;;;;;;;6.75;6.15;;;;;;;;;;5006735;28;20056;-67
2021/08/21 12:06:30;;;;;;;6.32;5.03;;;;;;;;;;4993111;28;20042;-67
2021/08/21 12:09:15;;;;;;;6.80;5.53;;;;;;;;;;4993100;28;20077;-67
2021/08/21 12:12:08;;;;;;;5.10;4.15;;;;;;;;;;5004583;28;20056;-67
2021/08/21 12:14:53;;;;;;;3.67;2.58;;;;;;;;;;5011373;28;20121;-67
2021/08/21 12:17:38;;;;;;;2.45;2.25;;;;;;;;;;5012923;28;20062;-67
2021/08/21 12:20:24;;;;;;;2.90;2.70;;;;;;;;;;5012504;28;20042;-68
2021/08/21 12:23:12;;;;;;;4.20;3.80;;;;;;;;;;5011717;28;20492;-68
2021/08/21 12:25:59;;;;;;;4.47;3.63;;;;;;;;;;5012534;28;20124;-68
2021/08/21 12:28:45;;;;;;;5.03;4.63;;;;;;;;;;5011580;28;20104;-67
2021/08/21 12:31:36;;;;;;;5.80;5.20;;;;;;;;;;5010773;28;20053;-69
2021/08/21 12:34:24;;;;;;;7.13;6.43;;;;;;;;;;4992575;28;20050;-69
2021/08/21 12:37:09;;;;;;;6.63;6.03;;;;;;;;;;4992843;28;20563;-67
2021/08/21 12:40:05;;;;;;;6.82;6.18;;;;;;;;;;4992604;28;20053;-68
2021/08/21 12:42:51;;;;;;;6.72;6.22;;;;;;;;;;4992693;28;20125;-69
2021/08/21 12:45:42;;;;;;;7.07;6.28;;;;;;;;;;4991453;28;20056;-69
2021/08/21 12:48:28;;;;;;;7.05;6.35;;;;;;;;;;4992583;28;20042;-68
2021/08/21 12:51:13;;;;;;;7.78;7.07;;;;;;;;;;4991685;28;20125;-69
2021/08/21 12:54:08;;;;;;;7.40;6.70;;;;;;;;;;5007274;28;20056;-70
2021/08/21 12:57:18;;;;;;;7.93;7.22;;;;;;;;;;5012378;28;20408;-69
2021/08/21 13:00:04;;;;;;;7.28;6.63;;;;;;;;;;5012085;28;20049;-71
2021/08/21 13:02:51;;;;;;;5.40;4.97;;;;;;;;;;5011350;28;20136;-69
2021/08/21 13:05:36;;;;;;;4.65;4.03;;;;;;;;;;5011974;28;20119;-70
2021/08/21 13:08:21;;;;;;;5.93;5.43;;;;;;;;;;5001919;28;20104;-70
2021/08/21 13:11:07;;;;;;;5.70;5.20;;;;;;;;;;4992409;28;20592;-69
2021/08/21 13:13:52;;;;;;;5.05;4.55;;;;;;;;;;4991197;28;20049;-69
2021/08/21 13:16:38;;;;;;;5.47;4.85;;;;;;;;;;4992409;28;20128;-70
2021/08/21 13:19:23;;;;;;;5.18;4.68;;;;;;;;;;4992001;28;20408;-70
2021/08/21 13:22:09;;;;;;;5.07;4.60;;;;;;;;;;4992460;28;20046;-70
2021/08/21 13:24:55;;;;;;;5.68;3.75;;;;;;;;;;4992269;28;20452;-70
2021/08/21 13:27:40;;;;;;;3.08;2.85;;;;;;;;;;4992239;28;20166;-70
2021/08/21 13:30:25;;;;;;;4.55;2.50;;;;;;;;;;5008876;28;20044;-70
2021/08/21 13:33:10;;;;;;;3.90;3.20;;;;;;;;;;5012003;28;20427;-70
2021/08/21 13:35:55;;;;;;;3.00;2.80;;;;;;;;;;5011745;28;20052;-70
2021/08/21 13:38:40;;;;;;;3.85;3.45;;;;;;;;;;5011009;28;20050;-70
2021/08/21 13:41:26;;;;;;;5.03;4.00;;;;;;;;;;5015769;28;20427;-71
2021/08/21 13:44:11;;;;;;;3.22;2.90;;;;;;;;;;5014406;28;20045;-70
2021/08/21 13:46:56;;;;;;;3.28;2.40;;;;;;;;;;5015304;28;20045;-70
2021/08/21 13:49:42;;;;;;;3.63;3.03;;;;;;;;;;5014820;28;20504;-71
2021/08/21 13:52:27;;;;;;;3.08;2.78;;;;;;;;;;5015228;28;20060;-70
2021/08/21 13:55:12;;;;;;;3.90;3.60;;;;;;;;;;5014965;28;20408;-69
2021/08/21 13:57:58;;;;;;;4.18;3.75;;;;;;;;;;5015160;28;20054;-69
2021/08/21 14:00:43;;;;;;;4.07;3.30;;;;;;;;;;5013096;28;20045;-70
2021/08/21 14:03:28;;;;;;;4.32;3.03;;;;;;;;;;5013877;28;20073;-69
2021/08/21 14:06:13;;;;;;;4.53;3.30;;;;;;;;;;5014915;28;20117;-70
2021/08/21 14:09:02;;;;;;;4.50;3.10;;;;;;;;;;5014876;28;20056;-69
2021/08/21 14:11:47;;;;;;;3.40;3.08;;;;;;;;;;5014854;28;20123;-70
2021/08/21 14:14:33;;;;;;;3.88;3.13;;;;;;;;;;5014777;28;20042;-69
2021/08/21 14:17:18;;;;;;;4.60;2.78;;;;;;;;;;5014796;28;20049;-69
2021/08/21 14:20:04;;;;;;;4.95;3.17;;;;;;;;;;5014143;28;20151;-69
2021/08/21 14:22:49;;;;;;;4.40;3.28;;;;;;;;;;5014778;28;20050;-69
2021/08/21 14:25:35;;;;;;;3.90;3.60;;;;;;;;;;5007032;28;20451;-69
2021/08/21 14:28:21;;;;;;;3.40;3.08;;;;;;;;;;5004644;28;20174;-70
2021/08/21 14:31:06;;;;;;;4.20;3.60;;;;;;;;;;5005571;28;20093;-69
2021/08/21 14:33:52;;;;;;;4.07;3.50;;;;;;;;;;5003175;28;20044;-69
2021/08/21 14:36:37;;;;;;;3.88;3.50;;;;;;;;;;5004093;28;20096;-69
2021/08/21 14:39:23;;;;;;;4.47;3.35;;;;;;;;;;5004779;28;20489;-70
2021/08/21 14:42:09;;;;;;;4.03;3.50;;;;;;;;;;5005112;28;20100;-70
2021/08/21 14:44:55;;;;;;;4.03;3.58;;;;;;;;;;5003619;28;20034;-68
2021/08/21 14:47:40;;;;;;;4.65;4.25;;;;;;;;;;5003548;28;20150;-68
2021/08/21 14:50:25;;;;;;;5.65;4.88;;;;;;;;;;5004337;28;20100;-68
2021/08/21 14:53:10;;;;;;;6.15;5.60;;;;;;;;;;5008608;28;20184;-68
2021/08/21 14:55:56;;;;;;;5.28;4.78;;;;;;;;;;5014152;28;20096;-68
2021/08/21 14:58:41;;;;;;;8.00;6.18;;;;;;;;;;5014051;28;20057;-70
2021/08/21 15:01:26;;;;;;;6.45;5.45;;;;;;;;;;5001595;28;20124;-69
2021/08/21 15:04:12;;;;;;;7.10;6.38;;;;;;;;;;4994195;28;20122;-70
2021/08/21 15:06:57;;;;;;;7.45;5.95;;;;;;;;;;4993333;28;20122;-70
2021/08/21 15:09:42;;;;;;;6.70;6.10;;;;;;;;;;4994162;28;20169;-70
2021/08/21 15:12:27;;;;;;;6.65;5.95;;;;;;;;;;5012545;28;20050;-68
2021/08/21 15:15:13;;;;;;;6.25;5.68;;;;;;;;;;5012535;28;20507;-68
2021/08/21 15:17:58;;;;;;;7.22;5.85;;;;;;;;;;5013911;28;20049;-70
2021/08/21 15:20:43;;;;;;;6.82;6.22;;;;;;;;;;5012700;28;20403;-70
2021/08/21 15:23:29;;;;;;;8.77;7.28;;;;;;;;;;5013374;28;20122;-69
2021/08/21 15:26:15;;;;;;;9.10;7.63;;;;;;;;;;5013567;28;20046;-69
2021/08/21 15:29:00;;;;;;;9.05;7.55;;;;;;;;;;5013392;28;20050;-70
2021/08/21 15:31:47;;;;;;;7.30;6.60;;;;;;;;;;5005729;28;20043;-70
2021/08/21 15:34:32;;;;;;;7.50;6.80;;;;;;;;;;4993782;28;20050;-69
2021/08/21 15:37:17;;;;;;;8.32;6.85;;;;;;;;;;4992801;28;20074;-69
2021/08/21 15:40:02;;;;;;;8.10;7.25;;;;;;;;;;4993746;28;20055;-68
2021/08/21 15:42:48;;;;;;;8.20;7.38;;;;;;;;;;5000932;28;20048;-68
2021/08/21 15:45:35;;;;;;;7.32;6.43;;;;;;;;;;5005649;28;20153;-70
2021/08/21 15:48:25;;;;;;;6.93;6.03;;;;;;;;;;5009319;28;20057;-69
2021/08/21 15:51:10;;;;;;;8.32;6.10;;;;;;;;;;5010434;28;20057;-69
2021/08/21 15:53:55;;;;;;;6.95;6.25;;;;;;;;;;5000564;28;20044;-69
2021/08/21 15:56:42;;;;;;;7.20;6.55;;;;;;;;;;5009763;28;20066;-68
2021/08/21 15:59:27;;;;;;;6.75;6.05;;;;;;;;;;5010047;28;20056;-69
2021/08/21 16:02:12;;;;;;;7.85;7.15;;;;;;;;;;5006490;28;20412;-69
2021/08/21 16:04:58;;;;;;;7.70;7.10;;;;;;;;;;4998852;28;20129;-69
2021/08/21 16:07:43;;;;;;;6.75;5.68;;;;;;;;;;5010326;28;20408;-70
2021/08/21 16:10:28;;;;;;;5.85;4.95;;;;;;;;;;5009302;28;20062;-69
2021/08/21 16:13:13;;;;;;;5.80;5.15;;;;;;;;;;5010569;28;20493;-69
2021/08/21 16:15:59;;;;;;;7.53;5.53;;;;;;;;;;5009575;28;20590;-69
2021/08/21 16:18:45;;;;;;;6.28;5.28;;;;;;;;;;5010812;28;20196;-69
2021/08/21 16:21:30;;;;;;;7.07;6.15;;;;;;;;;;5000996;28;20444;-68